Time;durP1;ratioP1;P1;durP2;ratioP2;P2;SDS_P1;SDS_P2;PMS_P1;PMS_P2;Temp;Humidity;BMP_temperature;BMP_pressure;BME280_temperature;BME280_humidity;BME280_pressure;Samples;Min_cycle;Max_cycle;Signal;HPM_P1;HPM_P2
2023/03/13 00:00:08;;;;;;;;;;;;;;;6.83;55.23;99903.91;334536;29;858;-70
2023/03/13 00:00:19;;;;;;;;;;;;;;;6.83;55.21;99904.75;335857;29;830;-70
2023/03/13 00:00:29;;;;;;;;;;;;;;;6.82;54.81;99912.59;337128;29;1109;-70
2023/03/13 00:00:39;;;;;;;;;;;;;;;6.80;55.18;99901.38;335412;29;5348;-70
2023/03/13 00:00:50;;;;;;;;;;;;;;;6.79;54.97;99905.72;336970;29;2539;-70
2023/03/13 00:01:01;;;;;;;;;;;;;;;6.80;55.15;99902.22;335296;29;2147;-70
2023/03/13 00:01:15;;;;;;;;;;;;;;;6.80;54.88;99899.63;330974;29;2241;-70
2023/03/13 00:01:26;;;;;;;;;;;;;;;6.81;55.19;99910.88;325506;30;2450;-70
2023/03/13 00:01:38;;;;;;;;;;;;;;;6.80;55.18;99898.78;325876;30;946;-70
2023/03/13 00:01:48;;;;;;;;;;;;;;;6.79;55.33;99900.50;327792;30;2175;-70
2023/03/13 00:01:59;;;;;;;;;;;;;;;6.80;54.98;99907.44;328543;30;2347;-70
2023/03/13 00:02:10;;;;;;;;;;;;;;;6.82;55.09;99910.84;327939;30;1799;-70
2023/03/13 00:02:20;;;;;;;;;;;;;;;6.82;55.36;99903.06;327212;30;1003;-70
2023/03/13 00:02:30;;;;;;;;;;;;;;;6.82;55.07;99903.06;328868;30;1344;-70
2023/03/13 00:02:41;;;;;;;;;;;;;;;6.81;55.23;99905.69;328018;30;2190;-70
2023/03/13 00:02:51;;;;;;;;;;;;;;;6.80;54.78;99907.44;328394;30;776;-70
2023/03/13 00:03:01;;;;;;;;;;;;;;;6.80;55.16;99904.81;325388;30;2468;-70
2023/03/13 00:03:11;;;;;;;;;;;;;;;6.78;54.68;99898.81;321008;30;2830;-70
2023/03/13 00:03:22;;;;;;;;;;;;;;;6.78;54.98;99898.81;317638;31;1239;-71
2023/03/13 00:03:32;;;;;;;;;;;;;;;6.79;54.72;99905.72;317369;30;3237;-70
2023/03/13 00:03:42;;;;;;;;;;;;;;;6.79;54.43;99907.47;318076;30;3581;-71
2023/03/13 00:03:54;;;;;;;;;;;;;;;6.79;55.00;99910.06;319931;30;1240;-71
2023/03/13 00:04:04;;;;;;;;;;;;;;;6.79;54.65;99904.84;317604;31;912;-71
2023/03/13 00:04:14;;;;;;;;;;;;;;;6.78;54.26;99906.59;317863;30;3110;-71
2023/03/13 00:04:24;;;;;;;;;;;;;;;6.80;54.21;99906.56;318420;31;2533;-71
2023/03/13 00:04:35;;;;;;;;;;;;;;;6.80;54.63;99910.03;316528;31;847;-71
2023/03/13 00:04:45;;;;;;;;;;;;;;;6.80;54.33;99915.22;318519;30;2277;-71
2023/03/13 00:04:55;;;;;;;;;;;;;;;6.80;54.64;99910.03;317216;30;2806;-71
2023/03/13 00:05:05;;;;;;;;;;;;;;;6.82;54.52;99912.59;318737;31;894;-71
2023/03/13 00:05:16;;;;;;;;;;;;;;;6.82;53.95;99903.06;319018;30;2976;-71
2023/03/13 00:05:26;;;;;;;;;;;;;;;6.82;54.11;99903.06;318031;30;3652;-70
2023/03/13 00:05:36;;;;;;;;;;;;;;;6.82;53.69;99913.47;318842;31;818;-70
2023/03/13 00:05:46;;;;;;;;;;;;;;;6.81;54.12;99911.75;318091;31;4563;-71
2023/03/13 00:05:57;;;;;;;;;;;;;;;6.80;53.80;99910.03;316394;31;4083;-70
2023/03/13 00:06:07;;;;;;;;;;;;;;;6.80;53.68;99904.81;316557;31;822;-70
2023/03/13 00:06:17;;;;;;;;;;;;;;;6.82;53.30;99907.41;316739;31;3632;-70
2023/03/13 00:06:31;;;;;;;;;;;;;;;6.82;53.38;99904.78;311613;31;4203;-71
2023/03/13 00:06:41;;;;;;;;;;;;;;;6.82;53.32;99900.44;311084;31;3595;-70
2023/03/13 00:06:51;;;;;;;;;;;;;;;6.83;53.54;99909.97;313157;31;1232;-70
2023/03/13 00:07:02;;;;;;;;;;;;;;;6.83;53.45;99907.38;312555;31;3472;-70
2023/03/13 00:07:12;;;;;;;;;;;;;;;6.84;53.23;99911.69;311458;31;4137;-70
2023/03/13 00:07:22;;;;;;;;;;;;;;;6.83;53.26;99912.56;312067;31;807;-69
2023/03/13 00:07:33;;;;;;;;;;;;;;;6.84;53.44;99903.03;308988;31;4518;-69
2023/03/13 00:07:43;;;;;;;;;;;;;;;6.83;53.33;99903.91;309200;31;6055;-71
2023/03/13 00:07:53;;;;;;;;;;;;;;;6.84;53.10;99906.47;313138;31;852;-70
2023/03/13 00:08:03;;;;;;;;;;;;;;;6.84;53.23;99913.44;312981;31;5874;-71
2023/03/13 00:08:14;;;;;;;;;;;;;;;6.85;53.23;99910.78;312009;31;5597;-70
2023/03/13 00:08:24;;;;;;;;;;;;;;;6.84;53.41;99910.81;308571;32;1499;-69
2023/03/13 00:08:35;;;;;;;;;;;;;;;6.85;53.08;99915.13;302228;32;1202;-69
2023/03/13 00:08:45;;;;;;;;;;;;;;;6.86;53.63;99907.31;303130;32;6145;-69
2023/03/13 00:08:55;;;;;;;;;;;;;;;6.86;53.48;99907.31;304172;31;4673;-71
2023/03/13 00:09:06;;;;;;;;;;;;;;;6.86;53.14;99912.50;307695;32;1038;-70
2023/03/13 00:09:16;;;;;;;;;;;;;;;6.87;53.03;99911.63;302727;32;5185;-70
2023/03/13 00:09:26;;;;;;;;;;;;;;;6.87;53.10;99906.41;302857;32;5879;-71
2023/03/13 00:09:37;;;;;;;;;;;;;;;6.87;52.64;99911.63;306631;32;801;-71
2023/03/13 00:09:47;;;;;;;;;;;;;;;6.87;52.76;99906.41;299019;32;5827;-71
2023/03/13 00:09:57;;;;;;;;;;;;;;;6.87;52.76;99906.41;297784;32;7770;-71
2023/03/13 00:10:07;;;;;;;;;;;;;;;6.86;52.25;99904.69;300395;32;940;-71
2023/03/13 00:10:18;;;;;;;;;;;;;;;6.87;52.53;99906.41;295613;33;8816;-71
2023/03/13 00:10:28;;;;;;;;;;;;;;;6.88;52.02;99913.34;293549;33;8702;-71
2023/03/13 00:10:39;;;;;;;;;;;;;;;6.87;52.12;99911.63;294302;33;871;-71
2023/03/13 00:12:46;;;;;;;;;;;;;;;6.92;51.81;99911.53;2504219;27;19933;-71
2023/03/13 00:12:56;;;;;;;;;;;;;;;6.91;51.65;99902.88;356208;27;849;-70
2023/03/13 00:13:06;;;;;;;;;;;;;;;6.90;51.84;99906.34;353231;28;1211;-70
2023/03/13 00:13:16;;;;;;;;;;;;;;;6.91;51.90;99908.06;351959;28;859;-70
2023/03/13 00:13:27;;;;;;;;;;;;;;;6.90;52.33;99908.09;350519;28;1682;-71
2023/03/13 00:13:37;;;;;;;;;;;;;;;6.90;51.95;99903.75;349311;28;1221;-70
2023/03/13 00:13:47;;;;;;;;;;;;;;;6.90;52.19;99906.34;350542;28;1384;-70
2023/03/13 00:13:58;;;;;;;;;;;;;;;6.90;52.21;99908.94;350697;28;918;-70
2023/03/13 00:14:08;;;;;;;;;;;;;;;6.89;52.33;99907.25;348992;28;943;-70
2023/03/13 00:14:18;;;;;;;;;;;;;;;6.88;51.91;99908.13;349187;28;1293;-70
2023/03/13 00:14:29;;;;;;;;;;;;;;;6.88;52.28;99908.13;349076;28;1307;-70
2023/03/13 00:14:39;;;;;;;;;;;;;;;6.88;52.53;99902.94;349708;28;843;-70
2023/03/13 00:14:49;;;;;;;;;;;;;;;6.87;52.31;99902.97;350603;28;1250;-70
2023/03/13 00:14:59;;;;;;;;;;;;;;;6.85;52.48;99918.59;350567;28;795;-70
2023/03/13 00:15:10;;;;;;;;;;;;;;;6.85;52.67;99904.72;350380;28;1552;-71
2023/03/13 00:15:20;;;;;;;;;;;;;;;6.84;52.48;99911.69;351986;28;871;-71
2023/03/13 00:15:30;;;;;;;;;;;;;;;6.84;52.26;99908.22;350409;28;1288;-71
2023/03/13 00:15:40;;;;;;;;;;;;;;;6.84;52.04;99916.88;350637;28;951;-71
2023/03/13 00:15:58;;;;;;;;;;;;;;;6.82;51.96;99918.66;350553;28;867;-71
2023/03/13 00:16:09;;;;;;;;;;;;;;;6.80;52.23;99910.03;350495;28;863;-71
2023/03/13 00:16:19;;;;;;;;;;;;;;;6.79;52.16;99908.31;350644;28;1117;-71
2023/03/13 00:16:29;;;;;;;;;;;;;;;6.80;51.91;99917.84;350545;28;841;-71
2023/03/13 00:16:39;;;;;;;;;;;;;;;6.80;51.98;99911.78;349571;28;1234;-71
2023/03/13 00:16:50;;;;;;;;;;;;;;;6.81;51.78;99916.94;351786;28;1316;-71
2023/03/13 00:17:01;;;;;;;;;;;;;;;6.82;51.71;99918.66;347664;28;1176;-71
2023/03/13 00:17:12;;;;;;;;;;;;;;;6.80;51.83;99916.97;348591;28;1040;-71
2023/03/13 00:17:22;;;;;;;;;;;;;;;6.79;51.74;99916.13;347900;28;1363;-71
2023/03/13 00:17:32;;;;;;;;;;;;;;;6.77;51.89;99910.09;349186;28;1074;-71
2023/03/13 00:17:42;;;;;;;;;;;;;;;6.77;51.53;99915.28;349125;28;1457;-71
2023/03/13 00:17:52;;;;;;;;;;;;;;;6.78;51.78;99914.41;351929;28;1209;-71
2023/03/13 00:18:03;;;;;;;;;;;;;;;6.77;51.70;99910.09;350609;28;927;-71
2023/03/13 00:18:13;;;;;;;;;;;;;;;6.78;52.10;99909.19;350489;28;958;-71
2023/03/13 00:18:23;;;;;;;;;;;;;;;6.79;51.72;99912.66;350912;28;879;-69
2023/03/13 00:18:33;;;;;;;;;;;;;;;6.79;51.84;99910.91;350406;28;1365;-71
2023/03/13 00:18:47;;;;;;;;;;;;;;;6.80;52.09;99915.22;350476;28;1009;-69
2023/03/13 00:18:57;;;;;;;;;;;;;;;6.80;51.52;99915.22;350475;28;3460;-72
2023/03/13 00:19:08;;;;;;;;;;;;;;;6.80;51.43;99915.22;347154;28;1225;-72
2023/03/13 00:19:18;;;;;;;;;;;;;;;6.80;51.61;99912.63;346450;28;1215;-70
2023/03/13 00:19:28;;;;;;;;;;;;;;;6.82;51.67;99917.81;347381;28;1188;-70
2023/03/13 00:19:38;;;;;;;;;;;;;;;6.82;51.25;99918.66;346737;28;1320;-70
2023/03/13 00:19:49;;;;;;;;;;;;;;;6.82;51.27;99918.66;344984;28;1217;-70
2023/03/13 00:20:00;;;;;;;;;;;;;;;6.82;51.28;99913.47;344960;28;1340;-70
2023/03/13 00:20:10;;;;;;;;;;;;;;;6.82;51.61;99912.59;347115;28;901;-70
2023/03/13 00:20:21;;;;;;;;;;;;;;;6.80;51.10;99920.44;346037;28;1295;-70
2023/03/13 00:20:31;;;;;;;;;;;;;;;6.80;51.46;99917.84;343635;28;1340;-70
2023/03/13 00:20:41;;;;;;;;;;;;;;;6.80;51.19;99910.03;340921;28;1248;-70
2023/03/13 00:21:07;;;;;;;;;;;;;;;6.80;51.40;99915.22;339103;28;1269;-71
2023/03/13 00:21:17;;;;;;;;;;;;;;;6.79;51.20;99913.53;338451;29;838;-70
2023/03/13 00:21:28;;;;;;;;;;;;;;;6.80;51.82;99915.22;338313;29;1614;-70
2023/03/13 00:21:40;;;;;;;;;;;;;;;6.79;51.42;99913.53;340447;28;1978;-70
2023/03/13 00:21:50;;;;;;;;;;;;;;;6.80;51.66;99910.03;341006;29;1303;-71
2023/03/13 00:22:00;;;;;;;;;;;;;;;6.80;51.49;99919.56;338389;29;1301;-71
2023/03/13 00:22:10;;;;;;;;;;;;;;;6.81;51.74;99916.94;339239;29;908;-71
2023/03/13 00:22:21;;;;;;;;;;;;;;;6.80;51.53;99910.03;339253;29;1364;-71
2023/03/13 00:22:31;;;;;;;;;;;;;;;6.81;51.66;99916.09;337096;29;933;-71
2023/03/13 00:22:41;;;;;;;;;;;;;;;6.80;50.99;99920.44;338764;29;1291;-71
2023/03/13 00:22:51;;;;;;;;;;;;;;;6.81;51.28;99913.50;338001;28;1602;-71
2023/03/13 00:23:01;;;;;;;;;;;;;;;6.81;51.19;99918.69;335774;29;1350;-69
2023/03/13 00:23:12;;;;;;;;;;;;;;;6.82;50.92;99917.81;340037;28;1485;-71
2023/03/13 00:23:22;;;;;;;;;;;;;;;6.80;51.81;99915.22;339031;29;1420;-69
2023/03/13 00:23:32;;;;;;;;;;;;;;;6.80;51.75;99917.84;338370;29;967;-70
2023/03/13 00:23:43;;;;;;;;;;;;;;;6.80;51.69;99915.22;335863;29;2546;-71
2023/03/13 00:23:53;;;;;;;;;;;;;;;6.81;51.78;99916.09;335214;29;1692;-71
2023/03/13 00:24:05;;;;;;;;;;;;;;;6.79;51.62;99921.31;335728;29;1377;-70
2023/03/13 00:24:15;;;;;;;;;;;;;;;6.80;51.88;99917.84;336026;29;1486;-70
2023/03/13 00:24:25;;;;;;;;;;;;;;;6.78;51.50;99919.59;335043;29;1440;-69
2023/03/13 00:24:36;;;;;;;;;;;;;;;6.78;51.53;99911.81;333824;29;1404;-70
2023/03/13 00:24:46;;;;;;;;;;;;;;;6.79;52.13;99913.53;330836;29;861;-70
2023/03/13 00:24:57;;;;;;;;;;;;;;;6.79;51.55;99916.13;333009;29;1945;-69
2023/03/13 00:25:08;;;;;;;;;;;;;;;6.79;51.54;99923.06;331587;29;2227;-71
2023/03/13 00:25:18;;;;;;;;;;;;;;;6.80;51.77;99919.56;333310;29;1016;-71
2023/03/13 00:25:28;;;;;;;;;;;;;;;6.80;51.49;99914.38;335781;29;2093;-71
2023/03/13 00:25:38;;;;;;;;;;;;;;;6.79;51.82;99921.31;334390;29;2175;-72
2023/03/13 00:25:54;;;;;;;;;;;;;;;6.80;51.57;99923.03;329514;29;1237;-70
2023/03/13 00:26:05;;;;;;;;;;;;;;;6.80;51.60;99917.84;327038;30;1208;-71
2023/03/13 00:26:17;;;;;;;;;;;;;;;6.80;51.83;99916.97;323469;30;876;-71
2023/03/13 00:26:27;;;;;;;;;;;;;;;6.80;51.88;99920.44;322423;30;1284;-70
2023/03/13 00:26:37;;;;;;;;;;;;;;;6.79;51.53;99910.06;322315;30;1802;-70
2023/03/13 00:26:47;;;;;;;;;;;;;;;6.79;51.49;99918.72;324796;30;948;-70
2023/03/13 00:27:02;;;;;;;;;;;;;;;6.79;51.68;99918.72;325112;30;2005;-70
2023/03/13 00:27:12;;;;;;;;;;;;;;;6.78;51.99;99917.00;322214;30;2767;-70
2023/03/13 00:27:22;;;;;;;;;;;;;;;6.79;51.74;99916.13;320805;30;3256;-70
2023/03/13 00:27:33;;;;;;;;;;;;;;;6.78;51.70;99913.56;315249;31;1211;-71
2023/03/13 00:27:43;;;;;;;;;;;;;;;6.79;51.86;99918.72;317597;31;3242;-70
2023/03/13 00:27:53;;;;;;;;;;;;;;;6.78;52.34;99914.41;316042;30;5021;-70
2023/03/13 00:28:04;;;;;;;;;;;;;;;6.77;52.19;99920.50;318150;31;2486;-70
2023/03/13 00:28:14;;;;;;;;;;;;;;;6.77;52.23;99912.69;314112;31;3255;-71
2023/03/13 00:28:24;;;;;;;;;;;;;;;6.77;51.78;99915.28;314503;31;2476;-71
2023/03/13 00:28:35;;;;;;;;;;;;;;;6.76;51.81;99918.78;316358;31;1461;-70
2023/03/13 00:28:45;;;;;;;;;;;;;;;6.77;51.99;99910.09;314252;31;854;-70
2023/03/13 00:28:56;;;;;;;;;;;;;;;6.77;52.25;99917.03;312172;31;2432;-69
2023/03/13 00:29:06;;;;;;;;;;;;;;;6.75;52.25;99917.06;312327;31;3415;-70
2023/03/13 00:29:16;;;;;;;;;;;;;;;6.76;52.54;99918.78;312008;31;1273;-69
2023/03/13 00:29:26;;;;;;;;;;;;;;;6.75;52.31;99911.00;308117;31;4106;-69
2023/03/13 00:29:36;;;;;;;;;;;;;;;6.74;52.41;99915.34;308145;31;4364;-69
2023/03/13 00:29:48;;;;;;;;;;;;;;;6.74;52.45;99912.75;309823;31;1218;-70
2023/03/13 00:29:58;;;;;;;;;;;;;;;6.74;52.87;99917.97;305072;32;4633;-71
2023/03/13 00:30:08;;;;;;;;;;;;;;;6.72;52.92;99917.13;304671;32;3998;-71
2023/03/13 00:30:18;;;;;;;;;;;;;;;6.70;52.54;99908.50;307649;32;1038;-71
2023/03/13 00:30:29;;;;;;;;;;;;;;;6.70;52.79;99913.69;305643;32;4250;-71
2023/03/13 00:30:39;;;;;;;;;;;;;;;6.70;52.45;99910.25;303307;32;3559;-71
2023/03/13 00:30:49;;;;;;;;;;;;;;;6.70;52.51;99916.31;304497;32;1034;-71
2023/03/13 00:31:00;;;;;;;;;;;;;;;6.70;53.12;99913.69;300264;32;3560;-71
2023/03/13 00:31:11;;;;;;;;;;;;;;;6.68;53.40;99905.94;301155;32;4164;-71
2023/03/13 00:31:22;;;;;;;;;;;;;;;6.69;53.26;99909.38;300833;32;5319;-71
2023/03/13 00:31:33;;;;;;;;;;;;;;;6.70;53.52;99916.31;299214;33;1267;-71
2023/03/13 00:31:43;;;;;;;;;;;;;;;6.68;53.26;99913.72;295017;32;6465;-71
2023/03/13 00:31:53;;;;;;;;;;;;;;;6.69;53.32;99917.19;293253;33;6279;-71
2023/03/13 00:32:04;;;;;;;;;;;;;;;6.69;53.41;99906.78;293367;33;1343;-71
2023/03/13 00:32:14;;;;;;;;;;;;;;;6.67;53.52;99900.75;293191;33;6847;-71
2023/03/13 00:32:25;;;;;;;;;;;;;;;6.67;53.30;99909.41;291506;33;5772;-69
2023/03/13 00:32:42;;;;;;;;;;;;;;;6.65;52.83;99905.13;291724;33;2465;-69
2023/03/13 00:32:52;;;;;;;;;;;;;;;6.65;53.46;99907.75;287840;34;5242;-71
2023/03/13 00:33:03;;;;;;;;;;;;;;;6.65;53.57;99905.13;287513;34;1256;-70
2023/03/13 00:33:13;;;;;;;;;;;;;;;6.64;53.71;99913.81;286120;34;5959;-70
2023/03/13 00:34:57;;;;;;;;;;;;;;;6.62;53.48;99905.19;2504142;27;20254;-71
2023/03/13 00:35:08;;;;;;;;;;;;;;;6.62;53.48;99910.41;356095;27;951;-72
2023/03/13 00:35:18;;;;;;;;;;;;;;;6.62;53.79;99913.00;353321;28;1351;-71
2023/03/13 00:35:28;;;;;;;;;;;;;;;6.63;53.74;99905.16;351891;28;1348;-71
2023/03/13 00:35:38;;;;;;;;;;;;;;;6.62;53.37;99905.19;350511;28;1313;-71
2023/03/13 00:35:49;;;;;;;;;;;;;;;6.62;53.65;99907.78;350580;28;1195;-71
2023/03/13 00:36:03;;;;;;;;;;;;;;;6.62;53.27;99905.19;350642;28;1238;-70
2023/03/13 00:36:14;;;;;;;;;;;;;;;6.60;53.27;99910.44;348977;28;911;-70
2023/03/13 00:36:25;;;;;;;;;;;;;;;6.60;53.74;99906.97;349193;28;1229;-70
2023/03/13 00:36:35;;;;;;;;;;;;;;;6.61;53.49;99908.69;350313;28;1434;-70
2023/03/13 00:36:46;;;;;;;;;;;;;;;6.61;53.22;99903.47;350564;28;717;-70
2023/03/13 00:36:56;;;;;;;;;;;;;;;6.61;53.74;99904.34;347776;28;3888;-70
2023/03/13 00:37:06;;;;;;;;;;;;;;;6.60;53.74;99901.78;348193;28;3696;-70
2023/03/13 00:37:16;;;;;;;;;;;;;;;6.61;53.13;99911.28;349448;28;2333;-70
2023/03/13 00:37:27;;;;;;;;;;;;;;;6.61;53.55;99906.09;350711;28;1283;-70
2023/03/13 00:37:37;;;;;;;;;;;;;;;6.61;53.65;99898.28;350572;28;1196;-70
2023/03/13 00:37:47;;;;;;;;;;;;;;;6.61;53.22;99906.94;353404;28;736;-70
2023/03/13 00:37:57;;;;;;;;;;;;;;;6.61;53.65;99909.53;353271;28;1312;-70
2023/03/13 00:38:07;;;;;;;;;;;;;;;6.61;53.89;99900.88;353225;28;1398;-70
2023/03/13 00:38:18;;;;;;;;;;;;;;;6.61;53.45;99901.75;351684;28;1249;-71
2023/03/13 00:38:28;;;;;;;;;;;;;;;6.60;53.14;99901.78;350542;28;1245;-71
2023/03/13 00:38:39;;;;;;;;;;;;;;;6.60;52.96;99905.22;350381;28;804;-71
2023/03/13 00:38:49;;;;;;;;;;;;;;;6.60;52.84;99896.56;350433;28;1002;-72
2023/03/13 00:38:59;;;;;;;;;;;;;;;6.60;53.05;99901.78;349311;28;828;-70
2023/03/13 00:39:09;;;;;;;;;;;;;;;6.60;53.08;99901.78;349037;28;1518;-70
2023/03/13 00:39:20;;;;;;;;;;;;;;;6.60;53.01;99901.78;349554;28;817;-71
2023/03/13 00:39:30;;;;;;;;;;;;;;;6.60;53.49;99902.63;350438;28;1211;-71
2023/03/13 00:39:40;;;;;;;;;;;;;;;6.59;53.28;99900.91;351853;28;1199;-71
2023/03/13 00:39:50;;;;;;;;;;;;;;;6.59;53.18;99900.06;351878;28;1208;-70
2023/03/13 00:40:01;;;;;;;;;;;;;;;6.59;53.89;99895.72;347856;28;1409;-70
2023/03/13 00:40:11;;;;;;;;;;;;;;;6.59;53.63;99902.66;350576;28;916;-71
2023/03/13 00:40:21;;;;;;;;;;;;;;;6.58;53.63;99904.41;348424;28;1183;-71
2023/03/13 00:40:31;;;;;;;;;;;;;;;6.58;53.67;99895.75;349128;28;924;-70
2023/03/13 00:40:42;;;;;;;;;;;;;;;6.58;53.42;99903.53;347763;28;878;-70
2023/03/13 00:40:59;;;;;;;;;;;;;;;6.56;53.29;99900.97;349065;28;1027;-69
2023/03/13 00:41:11;;;;;;;;;;;;;;;6.56;53.28;99903.56;350008;28;1009;-71
2023/03/13 00:41:22;;;;;;;;;;;;;;;6.58;53.40;99903.53;349885;28;1072;-70
2023/03/13 00:41:32;;;;;;;;;;;;;;;6.57;53.24;99899.22;347581;28;1478;-70
2023/03/13 00:41:43;;;;;;;;;;;;;;;6.57;52.90;99902.69;346453;28;784;-70
2023/03/13 00:41:53;;;;;;;;;;;;;;;6.56;53.04;99905.31;347223;28;1239;-70
2023/03/13 00:42:04;;;;;;;;;;;;;;;6.55;53.15;99895.81;346390;28;1238;-69
2023/03/13 00:42:14;;;;;;;;;;;;;;;6.55;53.06;99909.66;347791;28;851;-69
2023/03/13 00:42:24;;;;;;;;;;;;;;;6.54;52.98;99907.09;346172;28;1339;-70
2023/03/13 00:42:35;;;;;;;;;;;;;;;6.53;52.94;99902.78;344172;28;1337;-70
2023/03/13 00:42:45;;;;;;;;;;;;;;;6.52;53.12;99909.72;341060;29;1598;-70
2023/03/13 00:42:55;;;;;;;;;;;;;;;6.50;53.22;99906.28;340831;28;1374;-69
2023/03/13 00:43:05;;;;;;;;;;;;;;;6.52;53.27;99903.66;339431;29;1546;-71
2023/03/13 00:43:16;;;;;;;;;;;;;;;6.52;52.95;99903.66;341096;29;814;-70
2023/03/13 00:43:26;;;;;;;;;;;;;;;6.50;52.94;99905.47;342033;28;1427;-70
2023/03/13 00:43:36;;;;;;;;;;;;;;;6.49;53.24;99899.41;341583;28;1533;-71
2023/03/13 00:43:46;;;;;;;;;;;;;;;6.50;52.96;99908.06;340910;29;1004;-70
2023/03/13 00:43:57;;;;;;;;;;;;;;;6.49;53.08;99907.22;338415;29;916;-71
2023/03/13 00:44:07;;;;;;;;;;;;;;;6.48;53.30;99902.03;339636;29;1256;-71
2023/03/13 00:44:17;;;;;;;;;;;;;;;6.48;53.30;99902.03;339723;29;867;-70
2023/03/13 00:44:27;;;;;;;;;;;;;;;6.45;53.11;99900.34;339716;29;794;-70
2023/03/13 00:44:38;;;;;;;;;;;;;;;6.45;53.08;99902.94;338781;29;1318;-70
2023/03/13 00:44:48;;;;;;;;;;;;;;;6.45;53.12;99896.91;338449;29;1573;-71
2023/03/13 00:44:58;;;;;;;;;;;;;;;6.44;53.47;99900.38;339685;29;929;-71
2023/03/13 00:45:09;;;;;;;;;;;;;;;6.44;53.20;99901.25;338455;29;1869;-71
2023/03/13 00:45:19;;;;;;;;;;;;;;;6.44;53.47;99900.38;336850;29;1889;-71
2023/03/13 00:45:29;;;;;;;;;;;;;;;6.44;53.57;99900.38;335867;29;857;-71
2023/03/13 00:45:40;;;;;;;;;;;;;;;6.44;53.31;99905.59;336532;29;2020;-71
2023/03/13 00:45:50;;;;;;;;;;;;;;;6.41;53.32;99900.44;334705;29;2045;-70
2023/03/13 00:46:00;;;;;;;;;;;;;;;6.40;53.44;99904.78;334018;29;4036;-71
2023/03/13 00:46:10;;;;;;;;;;;;;;;6.40;53.83;99903.94;332472;29;3146;-70
2023/03/13 00:46:22;;;;;;;;;;;;;;;6.40;53.66;99903.94;330884;29;4961;-71
2023/03/13 00:46:32;;;;;;;;;;;;;;;6.39;53.53;99904.81;330147;29;1570;-70
2023/03/13 00:46:42;;;;;;;;;;;;;;;6.39;53.83;99907.41;329548;30;1423;-70
2023/03/13 00:46:52;;;;;;;;;;;;;;;6.38;54.00;99900.50;330688;29;1885;-70
2023/03/13 00:47:04;;;;;;;;;;;;;;;6.37;53.42;99903.97;331637;29;2207;-71
2023/03/13 00:47:14;;;;;;;;;;;;;;;6.36;53.64;99904.88;332015;29;1321;-71
2023/03/13 00:47:24;;;;;;;;;;;;;;;6.33;53.71;99897.97;329149;29;2304;-71
2023/03/13 00:47:35;;;;;;;;;;;;;;;6.32;53.46;99902.31;326525;30;2551;-70
2023/03/13 00:47:45;;;;;;;;;;;;;;;6.32;53.57;99902.31;327016;30;1239;-69
2023/03/13 00:47:55;;;;;;;;;;;;;;;6.31;53.85;99905.81;329730;29;2605;-71
2023/03/13 00:48:05;;;;;;;;;;;;;;;6.30;54.03;99895.44;325050;30;2677;-71
2023/03/13 00:48:15;;;;;;;;;;;;;;;6.30;53.79;99903.25;323502;30;831;-70
2023/03/13 00:48:26;;;;;;;;;;;;;;;6.29;53.68;99899.78;326710;30;1877;-70
2023/03/13 00:48:36;;;;;;;;;;;;;;;6.29;53.90;99902.38;328063;30;1794;-70
2023/03/13 00:48:47;;;;;;;;;;;;;;;6.30;54.16;99903.25;326590;30;1618;-70
2023/03/13 00:48:57;;;;;;;;;;;;;;;6.29;54.35;99897.19;321114;30;1006;-71
2023/03/13 00:49:08;;;;;;;;;;;;;;;6.29;54.53;99902.38;322751;30;2570;-70
2023/03/13 00:49:18;;;;;;;;;;;;;;;6.30;54.44;99904.09;324139;30;2697;-71
2023/03/13 00:49:28;;;;;;;;;;;;;;;6.29;54.35;99897.19;323582;30;943;-70
2023/03/13 00:49:38;;;;;;;;;;;;;;;6.30;54.22;99893.69;323751;30;3300;-70
2023/03/13 00:49:49;;;;;;;;;;;;;;;6.31;54.08;99905.81;320917;30;3313;-70
2023/03/13 00:49:59;;;;;;;;;;;;;;;6.32;54.29;99901.47;322135;30;1833;-70
2023/03/13 00:50:09;;;;;;;;;;;;;;;6.31;54.32;99900.63;322662;30;3237;-70
2023/03/13 00:50:20;;;;;;;;;;;;;;;6.31;54.61;99900.63;321897;30;3188;-70
2023/03/13 00:50:30;;;;;;;;;;;;;;;6.31;54.35;99899.75;322272;30;1187;-71
2023/03/13 00:50:40;;;;;;;;;;;;;;;6.31;54.34;99900.63;323011;30;2406;-70
2023/03/13 00:50:50;;;;;;;;;;;;;;;6.32;54.33;99901.47;323055;30;2690;-70
2023/03/13 00:51:01;;;;;;;;;;;;;;;6.32;54.15;99907.53;318815;30;1430;-71
2023/03/13 00:51:12;;;;;;;;;;;;;;;6.33;54.78;99904.03;318254;30;2994;-71
2023/03/13 00:51:25;;;;;;;;;;;;;;;6.34;54.51;99900.56;315834;31;3845;-71
2023/03/13 00:51:36;;;;;;;;;;;;;;;6.35;54.29;99904.00;316216;30;3888;-70
2023/03/13 00:51:46;;;;;;;;;;;;;;;6.36;54.63;99897.06;315376;31;799;-71
2023/03/13 00:51:56;;;;;;;;;;;;;;;6.35;54.48;99898.81;316572;31;4495;-70
2023/03/13 00:52:06;;;;;;;;;;;;;;;6.36;54.45;99903.13;316158;31;4140;-70
2023/03/13 00:52:16;;;;;;;;;;;;;;;6.36;54.88;99900.53;318738;31;1199;-70
2023/03/13 00:52:27;;;;;;;;;;;;;;;6.36;54.69;99897.06;313213;31;973;-70
2023/03/13 00:52:37;;;;;;;;;;;;;;;6.35;54.83;99906.63;311947;31;4391;-69
2023/03/13 00:52:47;;;;;;;;;;;;;;;6.36;55.04;99894.47;309192;31;3469;-70
2023/03/13 00:52:57;;;;;;;;;;;;;;;6.36;55.31;99902.28;307699;32;934;-70
2023/03/13 00:53:07;;;;;;;;;;;;;;;6.34;55.08;99900.56;306479;32;3048;-70
2023/03/13 00:53:18;;;;;;;;;;;;;;;6.34;54.76;99897.09;304514;32;4172;-70
2023/03/13 00:53:28;;;;;;;;;;;;;;;6.33;55.06;99904.03;305564;32;955;-70
2023/03/13 00:53:38;;;;;;;;;;;;;;;6.33;54.93;99904.03;305769;32;5663;-70
2023/03/13 00:53:49;;;;;;;;;;;;;;;6.33;55.20;99893.66;302904;32;5414;-71
2023/03/13 00:54:01;;;;;;;;;;;;;;;6.32;55.26;99904.06;302487;32;801;-71
2023/03/13 00:54:11;;;;;;;;;;;;;;;6.31;55.26;99904.94;300347;32;5308;-71
2023/03/13 00:54:22;;;;;;;;;;;;;;;6.32;55.24;99901.47;299461;32;6065;-71
2023/03/13 00:54:32;;;;;;;;;;;;;;;6.32;55.63;99901.47;300518;32;5827;-70
2023/03/13 00:54:42;;;;;;;;;;;;;;;6.32;55.51;99902.31;301344;32;1008;-71
2023/03/13 00:54:52;;;;;;;;;;;;;;;6.32;55.44;99902.31;301173;32;6171;-71
2023/03/13 00:55:03;;;;;;;;;;;;;;;6.32;55.20;99901.47;301741;32;4749;-75
2023/03/13 00:55:13;;;;;;;;;;;;;;;6.33;55.66;99904.03;302307;32;1409;-71
2023/03/13 00:55:23;;;;;;;;;;;;;;;6.32;55.54;99902.31;300234;32;3857;-70
2023/03/13 00:55:33;;;;;;;;;;;;;;;6.32;55.18;99902.31;298905;32;4782;-70
2023/03/13 00:55:53;;;;;;;;;;;;;;;6.32;55.47;99902.31;304518;32;845;-70
2023/03/13 00:56:04;;;;;;;;;;;;;;;6.32;55.39;99893.66;300670;32;7981;-71
2023/03/13 00:56:15;;;;;;;;;;;;;;;6.33;55.74;99897.97;299266;33;874;-71
2023/03/13 00:56:27;;;;;;;;;;;;;;;6.32;55.83;99896.28;296682;32;9037;-72
2023/03/13 00:56:38;;;;;;;;;;;;;;;6.30;55.52;99898.03;297575;32;9079;-71
2023/03/13 00:56:48;;;;;;;;;;;;;;;6.29;55.65;99899.78;299051;32;7936;-72
2023/03/13 00:56:58;;;;;;;;;;;;;;;6.28;55.50;99911.06;299110;33;1338;-74
2023/03/13 00:57:09;;;;;;;;;;;;;;;6.27;55.41;99900.69;298145;32;8310;-72
2023/03/13 00:57:22;;;;;;;;;;;;;;;6.27;55.57;99898.94;293774;33;6981;-71
2023/03/13 00:59:41;;;;;;;;;;;;;;;6.24;55.51;99898.16;2483832;27;20852;-70
2023/03/13 00:59:51;;;;;;;;;;;;;;;6.25;55.57;99903.31;351905;28;1217;-70
2023/03/13 01:00:03;;;;;;;;;;;;;;;6.23;55.98;99897.28;349165;28;1285;-70
2023/03/13 01:00:15;;;;;;;;;;;;;;;6.22;56.01;99900.78;347803;28;758;-70
2023/03/13 01:00:25;;;;;;;;;;;;;;;6.23;55.85;99902.50;346164;28;1449;-70
2023/03/13 01:00:35;;;;;;;;;;;;;;;6.24;56.00;99903.34;345093;28;884;-70
2023/03/13 01:00:46;;;;;;;;;;;;;;;6.24;56.17;99904.22;345109;28;1192;-70
2023/03/13 01:00:56;;;;;;;;;;;;;;;6.24;56.14;99899.00;345043;28;798;-72
2023/03/13 01:01:10;;;;;;;;;;;;;;;6.26;56.16;99899.84;344952;28;1313;-71
2023/03/13 01:01:24;;;;;;;;;;;;;;;6.26;56.23;99899.84;346236;28;1248;-71
2023/03/13 01:01:34;;;;;;;;;;;;;;;6.26;56.32;99896.38;347668;28;940;-71
2023/03/13 01:01:45;;;;;;;;;;;;;;;6.26;56.17;99905.03;346221;28;1478;-71
2023/03/13 01:01:55;;;;;;;;;;;;;;;6.26;56.24;99901.59;349055;28;1200;-70
2023/03/13 01:02:05;;;;;;;;;;;;;;;6.25;56.53;99895.53;347506;28;1286;-71
2023/03/13 01:02:15;;;;;;;;;;;;;;;6.25;56.56;99894.66;347679;28;866;-71
2023/03/13 01:02:25;;;;;;;;;;;;;;;6.26;56.64;99897.25;347842;28;785;-71
2023/03/13 01:02:39;;;;;;;;;;;;;;;6.26;56.18;99894.66;349085;28;1195;-71
2023/03/13 01:02:50;;;;;;;;;;;;;;;6.26;56.51;99892.03;349048;28;1399;-71
2023/03/13 01:03:00;;;;;;;;;;;;;;;6.26;56.54;99896.38;347692;28;1555;-71
2023/03/13 01:03:10;;;;;;;;;;;;;;;6.28;56.46;99900.66;347845;28;800;-71
2023/03/13 01:03:21;;;;;;;;;;;;;;;6.28;56.31;99900.66;347792;28;800;-70
2023/03/13 01:03:31;;;;;;;;;;;;;;;6.27;56.76;99898.94;346402;28;1118;-70